Time;durP1;ratioP1;P1;durP2;ratioP2;P2;SDS_P1;SDS_P2;PMS_P1;PMS_P2;Temp;Humidity;BMP_temperature;BMP_pressure;BME280_temperature;BME280_humidity;BME280_pressure;Samples;Min_cycle;Max_cycle;Signal;HPM_P1;HPM_P2
2023/02/15 00:02:00;;;;;;;75.40;39.47;;;6.10;79.10;;;;;;5061246;28;20291;-61
2023/02/15 00:04:46;;;;;;;77.00;40.73;;;6.10;79.10;;;;;;5061173;28;20555;-62
2023/02/15 00:07:15;;;;;;;83.13;41.33;;;6.10;79.20;;;;;;5065433;28;20628;-62
2023/02/15 00:09:44;;;;;;;74.47;40.37;;;6.00;79.30;;;;;;5063987;28;20216;-61
2023/02/15 00:12:11;;;;;;;75.00;41.00;;;6.00;79.50;;;;;;5066524;28;20202;-61
2023/02/15 00:14:38;;;;;;;78.70;41.27;;;6.00;79.60;;;;;;5066347;28;20194;-61
2023/02/15 00:17:06;;;;;;;77.40;40.27;;;6.00;79.60;;;;;;5064341;28;20240;-61
2023/02/15 00:19:33;;;;;;;78.40;39.97;;;6.00;79.60;;;;;;5066162;28;20662;-61
2023/02/15 00:22:00;;;;;;;68.90;37.87;;;5.90;79.70;;;;;;5066472;28;20226;-62
2023/02/15 00:24:27;;;;;;;73.13;39.43;;;5.90;79.70;;;;;;5066044;28;20225;-61
2023/02/15 00:26:54;;;;;;;78.97;39.23;;;5.90;79.70;;;;;;5064100;28;20244;-61
2023/02/15 00:29:21;;;;;;;76.03;38.73;;;5.90;79.60;;;;;;5068388;28;20592;-61
2023/02/15 00:31:48;;;;;;;77.23;38.10;;;5.80;80.10;;;;;;5066818;28;20211;-61
2023/02/15 00:34:21;;;;;;;83.87;40.70;;;5.80;79.40;;;;;;5064354;28;20213;-62
2023/02/15 00:36:48;;;;;;;83.30;39.70;;;5.80;79.50;;;;;;5064654;28;20201;-61
2023/02/15 00:39:17;;;;;;;83.63;41.17;;;5.70;79.40;;;;;;5066397;28;20637;-61
2023/02/15 00:41:45;;;;;;;82.67;39.50;;;5.70;79.30;;;;;;5067363;28;20241;-62
2023/02/15 00:44:13;;;;;;;73.90;38.63;;;5.60;79.60;;;;;;5073553;28;20206;-61
2023/02/15 00:46:40;;;;;;;71.77;37.83;;;5.60;79.90;;;;;;5065915;28;20225;-61
2023/02/15 00:49:09;;;;;;;79.73;40.23;;;5.60;80.30;;;;;;5061076;28;20191;-62
2023/02/15 00:51:37;;;;;;;79.17;38.37;;;5.50;80.30;;;;;;5066871;28;20527;-61
2023/02/15 00:54:04;;;;;;;76.40;38.77;;;5.50;80.20;;;;;;5077164;28;20610;-63
2023/02/15 00:56:31;;;;;;;78.30;38.40;;;5.50;80.30;;;;;;5066994;28;20198;-61
2023/02/15 00:58:58;;;;;;;70.47;38.20;;;5.50;80.50;;;;;;5057825;28;20210;-61
2023/02/15 01:01:26;;;;;;;71.23;36.03;;;5.50;80.50;;;;;;5072484;28;20213;-61
2023/02/15 01:03:53;;;;;;;70.17;37.20;;;5.50;80.50;;;;;;5068576;28;20342;-62
2023/02/15 01:06:20;;;;;;;83.07;37.70;;;5.50;80.80;;;;;;5063707;28;20186;-61
2023/02/15 01:08:48;;;;;;;73.47;36.43;;;5.50;80.70;;;;;;5069424;28;20205;-61
2023/02/15 01:11:24;;;;;;;78.77;37.60;;;5.50;80.70;;;;;;5062215;28;20214;-62
2023/02/15 01:13:54;;;;;;;73.80;37.60;;;5.40;80.50;;;;;;5064154;28;20544;-61
2023/02/15 01:16:22;;;;;;;75.07;38.30;;;5.40;80.50;;;;;;5066956;28;20209;-62
2023/02/15 01:18:50;;;;;;;73.33;37.50;;;5.40;80.50;;;;;;5061618;28;20220;-61
2023/02/15 01:21:20;;;;;;;68.73;35.43;;;5.30;80.60;;;;;;5066107;28;20635;-61
2023/02/15 01:23:47;;;;;;;73.33;37.80;;;5.30;80.90;;;;;;5080307;28;20271;-61
2023/02/15 01:26:15;;;;;;;65.07;35.70;;;5.30;81.10;;;;;;5065031;28;20201;-61
2023/02/15 01:28:44;;;;;;;64.13;33.87;;;5.20;81.00;;;;;;5080836;28;20206;-61
2023/02/15 01:31:14;;;;;;;60.87;33.00;;;5.20;81.50;;;;;;5063349;28;20229;-61
2023/02/15 01:33:42;;;;;;;70.40;35.70;;;5.20;80.80;;;;;;5064753;28;20237;-62
2023/02/15 01:36:09;;;;;;;68.23;35.63;;;5.10;80.70;;;;;;5078951;28;20205;-62
2023/02/15 01:38:39;;;;;;;66.20;33.83;;;5.10;80.80;;;;;;5063221;28;20193;-62
2023/02/15 01:41:26;;;;;;;78.87;36.07;;;5.00;80.70;;;;;;5067023;28;20253;-62
2023/02/15 01:43:56;;;;;;;74.00;37.87;;;5.00;80.80;;;;;;5059082;28;20210;-62
2023/02/15 01:46:50;;;;;;;74.77;37.73;;;5.00;81.00;;;;;;5066941;28;20589;-62
2023/02/15 01:49:21;;;;;;;85.50;39.80;;;4.90;81.20;;;;;;5066844;28;20539;-62
2023/02/15 01:51:52;;;;;;;76.53;37.37;;;4.90;81.40;;;;;;5066663;28;20288;-62
2023/02/15 01:54:35;;;;;;;72.57;36.30;;;4.90;81.50;;;;;;5060859;28;20543;-62
2023/02/15 01:57:08;;;;;;;69.90;35.47;;;4.90;81.80;;;;;;5059385;28;20200;-62
2023/02/15 01:59:39;;;;;;;74.87;36.17;;;4.90;81.80;;;;;;5062544;28;20663;-61
2023/02/15 02:02:08;;;;;;;71.13;35.90;;;4.90;81.60;;;;;;5060120;28;20732;-62
2023/02/15 02:04:43;;;;;;;71.63;34.83;;;4.80;81.10;;;;;;5075775;28;20232;-62
2023/02/15 02:07:14;;;;;;;66.33;34.93;;;4.70;81.30;;;;;;5068274;28;20250;-62
2023/02/15 02:09:41;;;;;;;66.43;33.30;;;4.70;81.80;;;;;;5057012;28;20226;-62
2023/02/15 02:12:09;;;;;;;55.07;29.67;;;4.60;82.00;;;;;;5077244;28;20240;-64
2023/02/15 02:14:40;;;;;;;57.70;32.27;;;4.60;82.20;;;;;;5064827;28;20190;-62
2023/02/15 02:17:30;;;;;;;56.37;32.37;;;4.60;82.20;;;;;;5063795;28;20236;-63
2023/02/15 02:20:06;;;;;;;74.13;33.73;;;4.50;81.80;;;;;;5054019;28;20206;-62
2023/02/15 02:22:42;;;;;;;71.67;34.27;;;4.40;81.00;;;;;;5075788;28;20226;-62
2023/02/15 02:25:18;;;;;;;73.03;35.73;;;4.40;80.90;;;;;;5062830;28;20197;-62
2023/02/15 02:27:48;;;;;;;61.60;31.77;;;4.30;80.90;;;;;;5062575;28;20258;-62
2023/02/15 02:30:47;;;;;;;65.97;32.93;;;4.20;81.00;;;;;;5065006;28;20678;-62
2023/02/15 02:33:35;;;;;;;63.63;32.97;;;4.10;81.30;;;;;;5064611;28;20206;-62
2023/02/15 02:36:20;;;;;;;58.93;32.80;;;4.10;81.50;;;;;;5065802;28;20227;-62
2023/02/15 02:39:07;;;;;;;71.57;34.87;;;4.00;81.70;;;;;;5063497;28;20217;-62
2023/02/15 02:41:39;;;;;;;58.73;29.97;;;3.90;81.70;;;;;;5060510;28;20238;-62
2023/02/15 02:44:27;;;;;;;61.30;32.60;;;3.90;82.00;;;;;;5059298;28;20275;-63
2023/02/15 02:47:26;;;;;;;56.20;30.53;;;3.90;82.30;;;;;;5060823;28;20210;-62
2023/02/15 02:50:02;;;;;;;57.57;29.40;;;3.80;82.40;;;;;;5077199;28;20233;-62
2023/02/15 02:52:41;;;;;;;64.17;30.87;;;3.80;82.50;;;;;;5059391;28;20194;-65
2023/02/15 02:55:20;;;;;;;57.90;30.50;;;3.80;82.50;;;;;;5067624;28;20615;-62
2023/02/15 02:58:11;;;;;;;59.33;31.50;;;3.80;82.50;;;;;;5068147;28;20221;-62
2023/02/15 03:00:50;;;;;;;63.70;30.90;;;3.70;82.60;;;;;;5067731;28;20244;-63
2023/02/15 03:03:38;;;;;;;60.60;31.57;;;3.70;82.80;;;;;;5065794;28;20211;-62
2023/02/15 03:06:18;;;;;;;62.67;31.33;;;3.70;82.90;;;;;;5068436;28;20280;-62
2023/02/15 03:08:51;;;;;;;54.37;29.53;;;3.70;82.80;;;;;;5063583;28;20262;-62
2023/02/15 03:11:18;;;;;;;52.93;29.23;;;3.60;82.70;;;;;;5073865;28;20212;-62
2023/02/15 03:13:47;;;;;;;59.50;30.57;;;3.60;82.60;;;;;;5065098;28;20230;-62
2023/02/15 03:16:27;;;;;;;59.03;29.93;;;3.60;82.40;;;;;;5072800;28;20220;-62
2023/02/15 03:18:59;;;;;;;63.53;31.63;;;3.60;82.40;;;;;;5064294;28;20306;-62
2023/02/15 03:21:57;;;;;;;61.07;32.03;;;3.50;82.60;;;;;;5061796;28;20286;-62
2023/02/15 03:24:29;;;;;;;53.90;28.97;;;3.50;82.80;;;;;;5064578;28;20204;-62
2023/02/15 03:26:58;;;;;;;57.30;28.80;;;3.50;83.00;;;;;;5068780;28;20198;-62
2023/02/15 03:29:27;;;;;;;58.67;29.33;;;3.50;83.20;;;;;;5062269;28;20201;-63
2023/02/15 03:32:01;;;;;;;59.40;30.20;;;3.50;83.30;;;;;;5079089;28;20203;-62
2023/02/15 03:34:29;;;;;;;63.27;30.97;;;3.50;83.50;;;;;;5065104;28;20200;-62
2023/02/15 03:37:07;;;;;;;66.70;29.77;;;3.50;83.60;;;;;;5063682;28;20196;-61
2023/02/15 03:39:43;;;;;;;57.37;30.77;;;3.50;83.80;;;;;;5063327;28;20224;-62
2023/02/15 03:42:12;;;;;;;61.80;32.03;;;3.50;83.80;;;;;;5063858;28;20248;-62
2023/02/15 03:44:51;;;;;;;57.73;30.07;;;3.50;83.90;;;;;;5061970;28;20201;-63
2023/02/15 03:47:24;;;;;;;55.03;30.07;;;3.50;84.10;;;;;;5063508;28;20246;-65
2023/02/15 03:49:56;;;;;;;56.13;29.30;;;3.50;84.80;;;;;;5061563;28;20223;-61
2023/02/15 03:52:27;;;;;;;66.00;31.07;;;3.50;84.30;;;;;;5061448;28;20222;-62
2023/02/15 03:54:55;;;;;;;65.13;32.20;;;3.60;84.40;;;;;;5068929;28;20559;-63
2023/02/15 04:03:28;;;;;;;58.07;28.83;;;3.60;84.80;;;;;;5064420;28;20551;-62
2023/02/15 04:05:55;;;;;;;55.27;26.80;;;3.60;84.90;;;;;;5057595;28;20200;-62
2023/02/15 04:10:51;;;;;;;56.37;30.97;;;3.60;84.70;;;;;;5058382;28;20225;-64
2023/02/15 04:11:09;;;;;;;61.23;28.90;;;3.60;84.40;;;;;;5067730;28;20200;-61
2023/02/15 04:13:36;;;;;;;60.93;30.13;;;3.60;84.30;;;;;;5057642;28;20224;-62
2023/02/15 04:16:03;;;;;;;54.07;28.83;;;3.50;84.40;;;;;;5061827;28;20193;-62
2023/02/15 04:26:59;;;;;;;59.33;29.97;;;3.60;85.50;;;;;;5063067;28;20559;-61
2023/02/15 04:29:27;;;;;;;53.37;29.47;;;3.60;85.80;;;;;;5062361;28;20233;-62
2023/02/15 04:31:55;;;;;;;54.90;27.97;;;3.60;86.20;;;;;;5058909;28;20304;-62
2023/02/15 04:34:22;;;;;;;59.03;30.93;;;3.60;86.30;;;;;;5060312;28;20292;-61
2023/02/15 04:36:50;;;;;;;56.03;28.17;;;3.50;86.30;;;;;;5063506;28;20646;-61
2023/02/15 04:39:18;;;;;;;58.17;29.37;;;3.60;86.50;;;;;;5063116;28;20264;-62
2023/02/15 04:41:45;;;;;;;53.77;28.67;;;3.50;86.20;;;;;;5061469;28;20273;-62
2023/02/15 04:44:12;;;;;;;58.10;29.60;;;3.50;85.80;;;;;;5061125;28;20232;-62
2023/02/15 04:46:39;;;;;;;56.10;28.10;;;3.50;85.50;;;;;;5062352;28;20198;-61
2023/02/15 04:49:08;;;;;;;55.97;29.73;;;3.40;85.30;;;;;;5061506;28;20251;-62
2023/02/15 04:51:35;;;;;;;60.30;28.43;;;3.40;85.20;;;;;;5061087;28;20666;-61
2023/02/15 04:54:02;;;;;;;51.53;28.77;;;3.40;85.00;;;;;;5067646;28;20311;-62
2023/02/15 04:56:29;;;;;;;63.83;30.60;;;3.30;84.80;;;;;;5063820;28;20460;-61
2023/02/15 04:58:57;;;;;;;61.00;29.87;;;3.30;84.90;;;;;;5076092;28;20205;-62
2023/02/15 05:01:24;;;;;;;59.00;30.70;;;3.20;84.90;;;;;;5062590;28;20216;-61
2023/02/15 05:03:51;;;;;;;54.10;29.10;;;3.20;85.00;;;;;;5062427;28;20206;-61
2023/02/15 05:06:18;;;;;;;58.20;29.87;;;3.20;85.20;;;;;;5059744;28;20201;-62
2023/02/15 05:08:45;;;;;;;51.63;28.73;;;3.20;85.30;;;;;;5067254;28;20243;-61
2023/02/15 05:11:12;;;;;;;56.73;30.13;;;3.20;85.50;;;;;;5059089;28;20232;-62
2023/02/15 05:13:39;;;;;;;51.97;27.77;;;3.20;85.50;;;;;;5063792;28;20637;-61
2023/02/15 05:16:06;;;;;;;60.37;28.67;;;3.20;85.40;;;;;;5064867;28;20225;-61
2023/02/15 05:18:33;;;;;;;57.77;29.30;;;3.20;85.40;;;;;;5063238;28;20196;-61
2023/02/15 05:21:00;;;;;;;57.60;30.50;;;3.20;85.50;;;;;;5059857;28;20297;-62
2023/02/15 05:23:27;;;;;;;58.57;29.47;;;3.20;85.70;;;;;;5064040;28;20241;-61
2023/02/15 05:28:39;;;;;;;53.33;29.87;;;3.20;86.20;;;;;;5064746;28;20197;-61
2023/02/15 05:31:14;;;;;;;60.60;29.77;;;3.30;86.50;;;;;;5064673;28;20266;-63
2023/02/15 05:33:41;;;;;;;56.30;29.70;;;3.30;86.50;;;;;;5065084;28;20512;-61
2023/02/15 05:36:09;;;;;;;52.20;27.97;;;3.30;86.40;;;;;;5062200;28;20888;-62
2023/02/15 05:38:39;;;;;;;57.03;28.50;;;3.30;86.30;;;;;;5067084;28;20201;-61
2023/02/15 05:41:07;;;;;;;52.63;26.70;;;3.30;87.00;;;;;;5065380;28;20233;-62
2023/02/15 05:43:34;;;;;;;54.20;26.80;;;3.40;86.50;;;;;;5065143;28;20623;-61
2023/02/15 05:46:02;;;;;;;54.53;27.13;;;3.40;86.50;;;;;;5064728;28;20199;-61
2023/02/15 05:48:31;;;;;;;54.80;26.60;;;3.40;86.50;;;;;;5064471;28;20216;-62
2023/02/15 05:51:02;;;;;;;52.27;26.77;;;3.40;86.60;;;;;;5065814;28;20208;-62
2023/02/15 05:53:31;;;;;;;53.40;26.40;;;3.40;86.60;;;;;;5064323;28;20200;-62
2023/02/15 05:55:59;;;;;;;54.03;27.03;;;3.40;86.60;;;;;;5064250;28;20199;-63
2023/02/15 05:58:33;;;;;;;53.07;25.43;;;3.40;86.60;;;;;;5065264;28;20534;-62
2023/02/15 06:01:08;;;;;;;60.33;28.30;;;3.40;86.60;;;;;;5064140;28;20296;-62
2023/02/15 06:03:35;;;;;;;52.50;26.03;;;3.40;86.50;;;;;;5067215;28;20278;-62
2023/02/15 06:06:04;;;;;;;56.50;27.57;;;3.40;86.60;;;;;;5061295;28;20609;-62
2023/02/15 06:08:32;;;;;;;53.13;28.40;;;3.40;86.70;;;;;;5066251;28;20192;-63
2023/02/15 06:11:00;;;;;;;50.10;26.60;;;3.40;86.70;;;;;;5062483;28;20263;-61
2023/02/15 06:13:28;;;;;;;58.47;26.97;;;3.40;86.60;;;;;;5058812;28;20262;-61
2023/02/15 06:15:55;;;;;;;48.70;26.20;;;3.30;86.40;;;;;;5061654;28;20236;-62
2023/02/15 06:18:22;;;;;;;53.17;26.73;;;3.30;86.40;;;;;;5065003;28;20205;-61
2023/02/15 06:20:49;;;;;;;53.30;26.87;;;3.30;86.50;;;;;;5061946;28;20203;-61
2023/02/15 06:23:16;;;;;;;62.30;27.40;;;3.30;86.50;;;;;;5058644;28;20217;-61
2023/02/15 06:25:45;;;;;;;51.83;24.50;;;3.30;86.40;;;;;;5067057;28;20586;-61
2023/02/15 06:28:13;;;;;;;49.10;26.43;;;3.30;86.50;;;;;;5063523;28;20212;-61
2023/02/15 06:30:40;;;;;;;53.30;26.90;;;3.20;86.30;;;;;;5071104;28;20249;-61
2023/02/15 06:33:07;;;;;;;55.77;27.90;;;3.30;86.20;;;;;;5061465;28;20214;-61
2023/02/15 06:35:34;;;;;;;52.17;26.30;;;3.20;86.10;;;;;;5063829;28;20574;-61
2023/02/15 06:38:01;;;;;;;53.40;27.57;;;3.20;86.20;;;;;;5066852;28;20239;-61
2023/02/15 06:40:28;;;;;;;54.23;26.77;;;3.30;86.50;;;;;;5062874;28;20300;-61
2023/02/15 06:42:55;;;;;;;48.43;26.97;;;3.30;86.60;;;;;;5065265;28;20216;-61
2023/02/15 06:45:22;;;;;;;58.57;29.23;;;3.40;86.80;;;;;;5062240;28;20203;-61
2023/02/15 06:47:49;;;;;;;59.07;27.90;;;3.40;86.90;;;;;;5062869;28;20514;-61
2023/02/15 06:50:16;;;;;;;57.90;28.63;;;3.50;87.00;;;;;;5064146;28;20213;-62
2023/02/15 06:52:43;;;;;;;56.27;28.53;;;3.60;87.20;;;;;;5064754;28;20308;-63
2023/02/15 06:55:10;;;;;;;52.73;27.50;;;3.60;87.20;;;;;;5061178;28;20226;-62
2023/02/15 06:57:37;;;;;;;60.03;29.97;;;3.70;87.20;;;;;;5060771;28;20263;-61
2023/02/15 07:00:05;;;;;;;52.37;26.63;;;3.80;87.10;;;;;;5061311;28;20605;-61
2023/02/15 07:02:33;;;;;;;53.13;26.60;;;4.00;86.90;;;;;;5062951;28;20227;-61
2023/02/15 07:05:00;;;;;;;53.80;26.97;;;4.20;86.50;;;;;;5059372;28;20204;-62
2023/02/15 07:07:27;;;;;;;52.87;26.30;;;4.50;85.70;;;;;;5063844;28;20627;-61
2023/02/15 07:09:54;;;;;;;58.90;28.70;;;4.70;84.60;;;;;;5059985;28;20252;-61
2023/02/15 07:15:09;;;;;;;58.73;26.17;;;5.00;84.60;;;;;;5054264;28;20251;-62
2023/02/15 07:17:36;;;;;;;50.13;27.03;;;5.30;83.50;;;;;;5058713;28;20207;-62
2023/02/15 07:20:07;;;;;;;53.50;27.50;;;5.70;82.10;;;;;;5061998;28;20197;-62
2023/02/15 07:22:36;;;;;;;57.03;27.47;;;6.10;80.50;;;;;;5059717;28;20744;-62
2023/02/15 07:25:05;;;;;;;55.17;27.80;;;6.50;78.90;;;;;;5062311;28;20520;-62
2023/02/15 07:27:32;;;;;;;55.43;28.13;;;6.90;77.40;;;;;;5056657;28;20209;-62
2023/02/15 07:30:00;;;;;;;50.13;25.23;;;7.30;76.10;;;;;;5061390;28;20285;-62
2023/02/15 07:32:31;;;;;;;49.73;27.03;;;7.60;74.90;;;;;;5059582;28;20312;-62
2023/02/15 07:34:59;;;;;;;48.97;26.97;;;7.80;73.90;;;;;;5065234;28;20256;-62
2023/02/15 07:37:27;;;;;;;61.07;27.33;;;8.20;72.90;;;;;;5063351;28;20217;-62
2023/02/15 07:39:54;;;;;;;47.73;25.97;;;8.40;72.20;;;;;;5063938;28;20204;-62
2023/02/15 07:42:21;;;;;;;49.03;26.30;;;8.60;71.60;;;;;;5062914;28;20578;-62
2023/02/15 07:44:52;;;;;;;48.80;26.50;;;8.80;71.10;;;;;;5064200;28;20209;-62
2023/02/15 07:47:19;;;;;;;49.10;26.23;;;8.90;70.50;;;;;;5062532;28;20209;-62
2023/02/15 07:49:47;;;;;;;46.87;24.63;;;9.10;70.30;;;;;;5061469;28;20518;-62
2023/02/15 07:52:16;;;;;;;58.43;25.40;;;9.20;70.00;;;;;;5062073;28;20202;-62
2023/02/15 07:54:43;;;;;;;49.43;25.40;;;9.30;69.90;;;;;;5064906;28;20270;-62
2023/02/15 07:57:10;;;;;;;51.63;25.23;;;9.30;69.80;;;;;;5065446;28;20198;-62
2023/02/15 07:59:37;;;;;;;53.63;27.17;;;9.30;70.10;;;;;;5063569;28;20200;-62
2023/02/15 08:02:09;;;;;;;48.07;25.23;;;9.20;70.50;;;;;;5060747;28;20225;-62
2023/02/15 08:04:36;;;;;;;46.77;23.77;;;9.10;71.00;;;;;;5062590;28;20198;-62
2023/02/15 08:07:04;;;;;;;45.33;25.27;;;9.10;71.60;;;;;;5063563;28;20608;-62
2023/02/15 08:09:31;;;;;;;43.53;24.13;;;8.90;72.10;;;;;;5061410;28;20656;-62
2023/02/15 08:11:58;;;;;;;47.30;24.27;;;8.90;72.80;;;;;;5063721;28;20209;-62
2023/02/15 08:14:27;;;;;;;41.10;22.43;;;8.80;73.20;;;;;;5057594;28;20284;-61
2023/02/15 08:16:59;;;;;;;44.10;23.73;;;8.80;73.60;;;;;;5064661;28;20240;-62
2023/02/15 08:19:28;;;;;;;40.30;23.23;;;8.80;73.80;;;;;;5059328;28;20542;-62
2023/02/15 08:22:01;;;;;;;38.13;21.70;;;8.90;73.90;;;;;;5053734;28;20203;-62
2023/02/15 08:24:31;;;;;;;42.70;23.27;;;9.00;73.80;;;;;;5059627;28;20217;-61
2023/02/15 08:26:58;;;;;;;45.93;24.13;;;9.00;73.70;;;;;;5063153;28;20280;-62
2023/02/15 08:29:28;;;;;;;39.30;21.93;;;9.20;73.60;;;;;;5064041;28;20613;-62
2023/02/15 08:32:04;;;;;;;48.30;22.73;;;9.30;73.50;;;;;;5063315;28;20649;-63
2023/02/15 08:34:34;;;;;;;42.33;23.27;;;9.40;73.30;;;;;;5067488;28;20194;-62
2023/02/15 08:37:02;;;;;;;43.00;23.57;;;9.50;73.20;;;;;;5066561;28;20201;-63
2023/02/15 08:39:29;;;;;;;41.77;23.73;;;9.60;72.80;;;;;;5066042;28;20641;-62
2023/02/15 08:41:56;;;;;;;45.63;21.77;;;9.70;72.40;;;;;;5061899;28;20250;-62
2023/02/15 08:44:24;;;;;;;38.93;22.53;;;9.80;72.10;;;;;;5064765;28;20301;-61
2023/02/15 08:46:51;;;;;;;39.27;22.60;;;9.90;71.70;;;;;;5062532;28;20201;-62
2023/02/15 08:49:20;;;;;;;39.97;22.20;;;10.00;71.30;;;;;;5065885;28;20204;-62
2023/02/15 08:51:49;;;;;;;43.37;23.17;;;10.10;70.70;;;;;;5062628;28;20201;-61
2023/02/15 08:54:19;;;;;;;40.77;22.13;;;10.20;70.50;;;;;;5064768;28;20204;-63
2023/02/15 08:56:46;;;;;;;43.83;23.10;;;10.30;70.20;;;;;;5063907;28;20208;-62
2023/02/15 08:59:19;;;;;;;41.80;24.47;;;10.40;70.10;;;;;;5066405;28;20298;-61
2023/02/15 09:01:49;;;;;;;41.40;23.23;;;10.40;69.90;;;;;;5063073;28;20197;-61
2023/02/15 09:04:17;;;;;;;46.57;22.83;;;10.50;69.50;;;;;;5069666;28;20219;-62
2023/02/15 09:06:46;;;;;;;44.57;23.97;;;10.60;68.90;;;;;;5062406;28;20275;-62
2023/02/15 09:09:16;;;;;;;41.40;23.73;;;10.70;68.50;;;;;;5065036;28;20210;-63
2023/02/15 09:11:45;;;;;;;41.33;23.03;;;10.70;68.50;;;;;;5059578;28;20523;-62
2023/02/15 09:14:15;;;;;;;42.80;23.07;;;10.80;68.40;;;;;;5062938;28;20700;-62
2023/02/15 09:16:46;;;;;;;49.47;23.57;;;10.90;68.40;;;;;;5064005;28;20244;-63
2023/02/15 09:19:13;;;;;;;40.30;22.13;;;11.00;68.10;;;;;;5067995;28;20212;-63
2023/02/15 09:21:40;;;;;;;36.70;21.20;;;11.10;67.40;;;;;;5066146;28;20209;-63
2023/02/15 09:24:11;;;;;;;39.57;22.40;;;11.10;67.50;;;;;;5063782;28;20709;-63
2023/02/15 09:26:41;;;;;;;49.37;24.07;;;11.20;67.30;;;;;;5060824;28;20252;-63
2023/02/15 09:29:09;;;;;;;41.83;23.87;;;11.20;65.90;;;;;;5062056;28;20212;-63
2023/02/15 09:31:43;;;;;;;43.03;23.50;;;11.20;66.40;;;;;;5064828;28;20220;-63
2023/02/15 09:34:16;;;;;;;44.97;23.63;;;11.20;66.90;;;;;;5057907;28;20201;-62
2023/02/15 09:36:44;;;;;;;46.93;23.77;;;11.30;66.90;;;;;;5059236;28;20708;-62
2023/02/15 09:39:24;;;;;;;51.97;27.63;;;11.40;67.00;;;;;;5068854;28;20212;-62
2023/02/15 09:42:18;;;;;;;55.53;27.87;;;11.50;66.60;;;;;;5070057;28;20332;-62
2023/02/15 09:45:07;;;;;;;58.30;29.30;;;11.60;66.00;;;;;;5066832;28;20260;-64
2023/02/15 09:47:46;;;;;;;46.13;26.40;;;11.70;65.80;;;;;;5064430;28;20527;-63
2023/02/15 09:50:31;;;;;;;55.03;28.17;;;11.80;66.00;;;;;;5064125;28;20233;-64
2023/02/15 09:53:10;;;;;;;53.33;29.43;;;11.90;65.20;;;;;;5063083;28;20308;-63
2023/02/15 09:55:40;;;;;;;54.97;30.40;;;12.00;65.20;;;;;;5066420;28;20196;-64
2023/02/15 09:58:34;;;;;;;63.43;33.53;;;12.00;66.00;;;;;;5061315;28;20204;-63
2023/02/15 10:51:00;;;;;;;73.70;40.67;;;14.20;61.50;;;;;;5061002;28;20185;-62
2023/02/15 10:53:37;;;;;;;71.47;40.50;;;14.20;60.50;;;;;;5062851;28;20198;-61
2023/02/15 10:56:24;;;;;;;66.33;37.40;;;14.20;61.00;;;;;;5058992;28;20692;-61
2023/02/15 10:59:03;;;;;;;66.73;38.80;;;14.30;60.40;;;;;;5062670;28;20235;-61
2023/02/15 11:01:49;;;;;;;70.97;40.23;;;14.30;60.60;;;;;;5068598;28;20536;-62
2023/02/15 11:04:41;;;;;;;67.13;39.80;;;14.30;60.50;;;;;;5061691;28;20221;-61
2023/02/15 11:11:26;;;;;;;68.03;39.67;;;14.50;60.60;;;;;;5062391;28;20296;-63
2023/02/15 11:13:59;;;;;;;67.13;38.83;;;14.70;61.10;;;;;;5060813;28;20202;-62
2023/02/15 11:16:37;;;;;;;67.80;41.00;;;14.90;60.60;;;;;;5061527;28;20213;-62
2023/02/15 11:19:11;;;;;;;69.77;39.07;;;15.10;60.60;;;;;;5060209;28;20437;-61
2023/02/15 11:21:49;;;;;;;73.20;39.47;;;15.10;59.30;;;;;;5059011;28;20516;-62
2023/02/15 11:24:19;;;;;;;69.13;40.60;;;15.20;59.50;;;;;;5057643;28;20229;-61
2023/02/15 11:27:12;;;;;;;65.37;39.50;;;15.30;59.50;;;;;;5057849;28;20290;-61
2023/02/15 11:29:48;;;;;;;76.07;40.80;;;15.40;58.90;;;;;;5062228;28;20199;-61
2023/02/15 11:32:31;;;;;;;66.33;40.37;;;15.50;58.90;;;;;;5058639;28;20602;-62
2023/02/15 11:35:20;;;;;;;61.03;39.97;;;15.60;58.40;;;;;;5059967;28;20290;-61
2023/02/15 11:37:55;;;;;;;70.50;41.03;;;15.70;58.10;;;;;;5056959;28;20212;-62
2023/02/15 11:40:32;;;;;;;67.40;40.10;;;15.80;57.70;;;;;;5061238;28;20206;-61
2023/02/15 11:43:19;;;;;;;69.10;39.20;;;15.80;58.60;;;;;;5058676;28;20596;-62
2023/02/15 11:45:46;;;;;;;66.83;39.97;;;16.00;58.50;;;;;;5063850;28;20202;-62
2023/02/15 11:48:15;;;;;;;67.97;40.20;;;16.10;58.30;;;;;;5059753;28;20527;-61
2023/02/15 11:50:43;;;;;;;70.93;39.73;;;16.30;57.90;;;;;;5062361;28;20222;-61
2023/02/15 11:53:16;;;;;;;65.50;39.53;;;16.40;57.20;;;;;;5064093;28;20523;-61
2023/02/15 11:55:45;;;;;;;62.70;37.37;;;16.50;57.40;;;;;;5065505;28;20651;-61
2023/02/15 11:58:21;;;;;;;63.90;38.00;;;16.60;57.20;;;;;;5063009;28;20194;-62
2023/02/15 12:00:54;;;;;;;68.57;39.93;;;16.70;56.80;;;;;;5059867;28;20288;-62
2023/02/15 12:03:29;;;;;;;70.70;40.80;;;16.80;55.90;;;;;;5066794;28;20289;-62
2023/02/15 12:06:01;;;;;;;66.57;38.63;;;16.90;56.00;;;;;;5066091;28;20193;-61
2023/02/15 12:08:40;;;;;;;62.03;38.00;;;16.90;55.90;;;;;;5065641;28;20284;-62
2023/02/15 12:11:17;;;;;;;67.87;39.43;;;17.10;55.70;;;;;;5080621;28;20215;-62
2023/02/15 12:14:02;;;;;;;73.90;39.60;;;17.20;55.70;;;;;;5066742;28;20294;-61
2023/02/15 12:16:39;;;;;;;64.23;38.60;;;17.20;55.00;;;;;;5069939;28;20242;-62
2023/02/15 12:19:34;;;;;;;60.70;36.57;;;17.30;54.90;;;;;;5065928;28;20211;-62
2023/02/15 12:22:03;;;;;;;61.70;36.43;;;17.40;54.50;;;;;;5057152;28;20267;-62
2023/02/15 12:24:38;;;;;;;59.33;36.13;;;17.40;53.30;;;;;;5061410;28;20216;-62
2023/02/15 12:27:15;;;;;;;58.07;36.40;;;17.50;53.40;;;;;;5061498;28;20203;-62
2023/02/15 12:29:53;;;;;;;70.83;39.33;;;17.50;53.80;;;;;;5063323;28;20187;-61
2023/02/15 12:32:29;;;;;;;62.27;36.27;;;17.50;53.60;;;;;;5061257;28;20274;-62
2023/02/15 12:35:08;;;;;;;60.43;35.97;;;17.60;53.10;;;;;;5065834;28;20203;-62
2023/02/15 12:37:35;;;;;;;60.80;36.07;;;17.60;51.50;;;;;;5063286;28;20524;-61
2023/02/15 12:40:20;;;;;;;58.90;34.73;;;17.60;51.50;;;;;;5059293;28;20235;-62
2023/02/15 12:42:48;;;;;;;53.57;32.53;;;17.60;52.00;;;;;;5062495;28;20263;-61
2023/02/15 12:45:31;;;;;;;52.40;33.67;;;17.60;51.90;;;;;;5069912;28;20259;-62
2023/02/15 12:48:17;;;;;;;53.10;32.97;;;17.70;51.90;;;;;;5063902;28;20266;-62
2023/02/15 12:50:49;;;;;;;56.73;35.10;;;17.70;52.20;;;;;;5066390;28;20286;-61
2023/02/15 12:53:36;;;;;;;56.50;34.63;;;17.70;50.30;;;;;;5064397;28;20550;-62
2023/02/15 12:56:08;;;;;;;41.77;26.93;;;17.70;50.30;;;;;;5064702;28;20202;-62
2023/02/15 12:58:40;;;;;;;51.70;29.87;;;17.70;48.70;;;;;;5063465;28;20250;-61
2023/02/15 13:01:20;;;;;;;51.43;31.80;;;17.60;47.00;;;;;;5065540;28;20298;-61
2023/02/15 13:04:19;;;;;;;51.00;30.77;;;17.50;47.70;;;;;;5066390;28;20661;-62
2023/02/15 13:06:51;;;;;;;50.53;31.10;;;17.40;48.60;;;;;;5067098;28;20310;-61
2023/02/15 13:09:24;;;;;;;52.17;31.43;;;17.40;48.90;;;;;;5065335;28;20205;-62
2023/02/15 13:11:51;;;;;;;48.43;30.30;;;17.40;48.50;;;;;;5060837;28;20208;-61
2023/02/15 13:14:33;;;;;;;50.43;31.17;;;17.40;48.40;;;;;;5063271;28;20206;-61
2023/02/15 13:17:02;;;;;;;46.13;28.40;;;17.40;47.70;;;;;;5066022;28;20195;-61
2023/02/15 13:19:39;;;;;;;43.93;28.70;;;17.50;47.40;;;;;;5064306;28;20229;-62
2023/02/15 13:22:12;;;;;;;46.33;29.33;;;17.40;47.00;;;;;;5067705;28;20215;-61
2023/02/15 13:24:47;;;;;;;46.97;29.83;;;17.50;47.80;;;;;;5062975;28;20667;-62
2023/02/15 13:27:20;;;;;;;52.73;30.03;;;17.50;47.30;;;;;;5066967;28;20720;-61
2023/02/15 13:29:52;;;;;;;45.47;28.90;;;17.40;46.80;;;;;;5061504;28;20200;-61
2023/02/15 13:32:40;;;;;;;50.07;29.67;;;17.40;47.50;;;;;;5060937;28;20598;-61
2023/02/15 13:35:16;;;;;;;46.27;28.27;;;17.40;48.30;;;;;;5061216;28;20562;-62
2023/02/15 13:37:52;;;;;;;51.77;30.20;;;17.50;48.30;;;;;;5067651;28;20563;-61
2023/02/15 13:40:32;;;;;;;49.90;30.83;;;17.50;48.50;;;;;;5056526;28;20231;-60
2023/02/15 13:43:02;;;;;;;44.33;29.13;;;17.60;48.70;;;;;;5061762;28;20212;-61
2023/02/15 13:59:05;;;;;;;54.17;32.03;;;17.60;47.50;;;;;;5038252;28;20211;-61
2023/02/15 14:02:11;;;;;;;51.67;29.13;;;17.60;47.70;;;;;;5062967;28;20597;-61
2023/02/15 14:04:53;;;;;;;56.83;30.50;;;17.50;48.10;;;;;;5058418;28;20615;-61
2023/02/15 14:07:50;;;;;;;47.47;30.77;;;17.50;48.10;;;;;;5063956;28;20203;-62
2023/02/15 14:10:35;;;;;;;51.07;29.53;;;17.50;48.00;;;;;;5064543;28;20205;-61
2023/02/15 14:13:37;;;;;;;48.50;28.97;;;17.40;47.40;;;;;;5063569;28;20203;-61
2023/02/15 14:16:34;;;;;;;51.70;28.83;;;17.40;47.20;;;;;;5063325;28;20246;-61
2023/02/15 14:19:30;;;;;;;49.00;29.20;;;17.30;47.20;;;;;;5062563;28;20230;-62
2023/02/15 14:22:07;;;;;;;50.77;28.33;;;17.30;47.50;;;;;;5060716;28;20217;-62
2023/02/15 14:24:37;;;;;;;51.13;28.20;;;17.30;47.80;;;;;;5062502;28;20223;-61
2023/02/15 14:27:30;;;;;;;50.07;29.83;;;17.30;47.50;;;;;;5062772;28;20239;-61
2023/02/15 14:30:04;;;;;;;51.87;28.47;;;17.20;46.50;;;;;;5063020;28;20299;-61